sensor_id;sensor_type;location;lat;lon;timestamp;pressure;altitude;pressure_sealevel;temperature;humidity
72570;BME280;60594;50.204;8.844;2023-05-07T00:02:25;99965.66;;;15.37;85.51
72570;BME280;60594;50.204;8.844;2023-05-07T00:04:51;99962.81;;;15.38;85.28
72570;BME280;60594;50.204;8.844;2023-05-07T00:07:18;99961.59;;;15.33;85.34
72570;BME280;60594;50.204;8.844;2023-05-07T00:09:44;99961.28;;;15.36;85.20
72570;BME280;60594;50.204;8.844;2023-05-07T00:12:11;99950.31;;;15.29;85.31
72570;BME280;60594;50.204;8.844;2023-05-07T00:14:37;99955.09;;;15.18;86.55
72570;BME280;60594;50.204;8.844;2023-05-07T00:17:04;99956.56;;;15.12;86.40
72570;BME280;60594;50.204;8.844;2023-05-07T00:19:30;99952.16;;;15.03;86.56
72570;BME280;60594;50.204;8.844;2023-05-07T00:21:57;99954.69;;;15.05;86.85
72570;BME280;60594;50.204;8.844;2023-05-07T00:24:24;99946.53;;;15.14;86.50
72570;BME280;60594;50.204;8.844;2023-05-07T00:26:50;99950.94;;;15.23;85.95
72570;BME280;60594;50.204;8.844;2023-05-07T00:29:18;99943.72;;;15.24;85.70
72570;BME280;60594;50.204;8.844;2023-05-07T00:31:45;99946.44;;;15.32;86.00
72570;BME280;60594;50.204;8.844;2023-05-07T00:34:11;99946.13;;;15.35;86.10
72570;BME280;60594;50.204;8.844;2023-05-07T00:36:38;99949.13;;;15.32;86.27
72570;BME280;60594;50.204;8.844;2023-05-07T00:39:04;99945.47;;;15.33;85.69
72570;BME280;60594;50.204;8.844;2023-05-07T00:41:30;99941.50;;;15.37;85.29
72570;BME280;60594;50.204;8.844;2023-05-07T00:43:57;99947.03;;;15.35;85.79
72570;BME280;60594;50.204;8.844;2023-05-07T00:46:24;99945.25;;;15.26;86.02
72570;BME280;60594;50.204;8.844;2023-05-07T00:48:51;99944.59;;;15.24;86.38
72570;BME280;60594;50.204;8.844;2023-05-07T00:51:18;99952.03;;;15.13;85.82
72570;BME280;60594;50.204;8.844;2023-05-07T00:53:45;99950.22;;;15.13;86.01
72570;BME280;60594;50.204;8.844;2023-05-07T00:56:12;99940.28;;;15.14;86.65
72570;BME280;60594;50.204;8.844;2023-05-07T00:58:40;99937.69;;;15.22;86.79
72570;BME280;60594;50.204;8.844;2023-05-07T01:01:07;99928.59;;;15.15;86.59
72570;BME280;60594;50.204;8.844;2023-05-07T01:03:34;99925.41;;;15.19;86.00
72570;BME280;60594;50.204;8.844;2023-05-07T01:06:02;99928.09;;;15.19;86.18
72570;BME280;60594;50.204;8.844;2023-05-07T01:08:30;99925.41;;;15.19;85.13
72570;BME280;60594;50.204;8.844;2023-05-07T01:10:58;99919.56;;;15.24;84.52
72570;BME280;60594;50.204;8.844;2023-05-07T01:13:27;99931.97;;;15.25;84.73
72570;BME280;60594;50.204;8.844;2023-05-07T01:15:53;99930.41;;;15.14;85.22
72570;BME280;60594;50.204;8.844;2023-05-07T01:18:20;99933.88;;;15.07;85.98
72570;BME280;60594;50.204;8.844;2023-05-07T01:20:48;99943.25;;;15.03;87.08
72570;BME280;60594;50.204;8.844;2023-05-07T01:23:15;99940.94;;;15.08;87.32
72570;BME280;60594;50.204;8.844;2023-05-07T01:25:42;99937.78;;;15.12;86.96
72570;BME280;60594;50.204;8.844;2023-05-07T01:28:09;99937.06;;;15.02;87.54
72570;BME280;60594;50.204;8.844;2023-05-07T01:30:40;99930.88;;;15.10;86.75
72570;BME280;60594;50.204;8.844;2023-05-07T01:33:11;99929.25;;;15.17;86.44
72570;BME280;60594;50.204;8.844;2023-05-07T01:35:41;99925.94;;;15.23;85.29
72570;BME280;60594;50.204;8.844;2023-05-07T01:38:09;99930.78;;;15.19;85.48
72570;BME280;60594;50.204;8.844;2023-05-07T01:40:36;99929.94;;;15.19;85.76
72570;BME280;60594;50.204;8.844;2023-05-07T01:43:03;99934.19;;;15.29;84.79
72570;BME280;60594;50.204;8.844;2023-05-07T01:45:30;99936.78;;;15.13;85.91
72570;BME280;60594;50.204;8.844;2023-05-07T01:48:01;99941.09;;;15.06;86.22
72570;BME280;60594;50.204;8.844;2023-05-07T01:50:29;99937.63;;;14.88;87.25
72570;BME280;60594;50.204;8.844;2023-05-07T01:52:56;99933.00;;;14.98;86.35
72570;BME280;60594;50.204;8.844;2023-05-07T01:55:23;99929.94;;;14.93;86.67
72570;BME280;60594;50.204;8.844;2023-05-07T01:57:50;99933.06;;;15.06;86.71
72570;BME280;60594;50.204;8.844;2023-05-07T02:00:17;99926.06;;;15.13;85.85
72570;BME280;60594;50.204;8.844;2023-05-07T02:02:45;99917.47;;;15.10;85.08
72570;BME280;60594;50.204;8.844;2023-05-07T02:05:23;99923.63;;;15.02;85.51
72570;BME280;60594;50.204;8.844;2023-05-07T02:07:57;99920.19;;;14.92;85.53
72570;BME280;60594;50.204;8.844;2023-05-07T02:10:24;99925.56;;;14.92;85.12
72570;BME280;60594;50.204;8.844;2023-05-07T02:12:50;99932.84;;;15.00;86.32
72570;BME280;60594;50.204;8.844;2023-05-07T02:15:17;99931.56;;;15.12;85.06
72570;BME280;60594;50.204;8.844;2023-05-07T02:18:03;99928.25;;;15.18;84.68
72570;BME280;60594;50.204;8.844;2023-05-07T02:20:30;99933.69;;;15.26;84.32
72570;BME280;60594;50.204;8.844;2023-05-07T02:22:57;99937.50;;;15.23;84.48
72570;BME280;60594;50.204;8.844;2023-05-07T02:25:24;99935.88;;;15.30;84.44
72570;BME280;60594;50.204;8.844;2023-05-07T02:27:50;99934.03;;;15.31;83.85
72570;BME280;60594;50.204;8.844;2023-05-07T02:30:18;99935.28;;;15.36;84.05
72570;BME280;60594;50.204;8.844;2023-05-07T02:32:47;99935.41;;;15.35;83.36
72570;BME280;60594;50.204;8.844;2023-05-07T02:35:14;99938.72;;;15.29;84.32
72570;BME280;60594;50.204;8.844;2023-05-07T02:37:40;99944.78;;;15.31;84.42
72570;BME280;60594;50.204;8.844;2023-05-07T02:40:07;99950.47;;;15.28;84.37
72570;BME280;60594;50.204;8.844;2023-05-07T02:42:34;99939.09;;;15.08;85.68
72570;BME280;60594;50.204;8.844;2023-05-07T02:45:01;99943.31;;;15.11;85.40
72570;BME280;60594;50.204;8.844;2023-05-07T02:47:30;99933.72;;;15.08;85.68
72570;BME280;60594;50.204;8.844;2023-05-07T02:49:58;99932.63;;;14.93;86.61
72570;BME280;60594;50.204;8.844;2023-05-07T02:52:25;99938.03;;;15.01;87.32
72570;BME280;60594;50.204;8.844;2023-05-07T02:54:51;99938.78;;;15.11;86.28
72570;BME280;60594;50.204;8.844;2023-05-07T02:57:18;99933.94;;;15.15;85.72
72570;BME280;60594;50.204;8.844;2023-05-07T02:59:44;99930.41;;;15.14;86.74
72570;BME280;60594;50.204;8.844;2023-05-07T03:02:12;99937.00;;;15.20;84.54
72570;BME280;60594;50.204;8.844;2023-05-07T03:04:39;99938.00;;;15.19;84.88
72570;BME280;60594;50.204;8.844;2023-05-07T03:07:05;99935.28;;;15.11;85.18
72570;BME280;60594;50.204;8.844;2023-05-07T03:09:33;99939.09;;;15.08;85.88
72570;BME280;60594;50.204;8.844;2023-05-07T03:11:59;99933.56;;;15.10;86.15
72570;BME280;60594;50.204;8.844;2023-05-07T03:14:28;99927.53;;;15.08;86.39
72570;BME280;60594;50.204;8.844;2023-05-07T03:16:54;99927.69;;;15.06;86.20
72570;BME280;60594;50.204;8.844;2023-05-07T03:19:21;99931.38;;;15.05;85.95
72570;BME280;60594;50.204;8.844;2023-05-07T03:21:47;99923.47;;;15.04;86.39
72570;BME280;60594;50.204;8.844;2023-05-07T03:24:14;99924.78;;;15.00;86.19
72570;BME280;60594;50.204;8.844;2023-05-07T03:26:40;99924.34;;;14.87;87.58
72570;BME280;60594;50.204;8.844;2023-05-07T03:29:07;99929.34;;;14.82;87.59
72570;BME280;60594;50.204;8.844;2023-05-07T03:31:33;99926.59;;;14.74;87.86
72570;BME280;60594;50.204;8.844;2023-05-07T03:34:01;99931.66;;;14.77;86.99
72570;BME280;60594;50.204;8.844;2023-05-07T03:36:27;99928.75;;;14.70;87.23
72570;BME280;60594;50.204;8.844;2023-05-07T03:38:55;99933.91;;;14.64;87.94
72570;BME280;60594;50.204;8.844;2023-05-07T03:41:25;99924.84;;;14.65;88.01
72570;BME280;60594;50.204;8.844;2023-05-07T03:43:52;99928.22;;;14.49;89.41
72570;BME280;60594;50.204;8.844;2023-05-07T03:46:18;99933.50;;;14.59;88.46
72570;BME280;60594;50.204;8.844;2023-05-07T03:48:45;99931.63;;;14.34;89.21
72570;BME280;60594;50.204;8.844;2023-05-07T03:51:13;99933.13;;;14.54;88.97
72570;BME280;60594;50.204;8.844;2023-05-07T03:53:40;99930.47;;;14.54;88.57
72570;BME280;60594;50.204;8.844;2023-05-07T03:56:06;99936.44;;;14.48;88.84
72570;BME280;60594;50.204;8.844;2023-05-07T03:58:37;99936.13;;;14.51;88.27
72570;BME280;60594;50.204;8.844;2023-05-07T04:01:08;99932.38;;;14.44;87.97
72570;BME280;60594;50.204;8.844;2023-05-07T04:03:35;99935.06;;;14.44;88.18
72570;BME280;60594;50.204;8.844;2023-05-07T04:06:02;99930.03;;;14.41;87.49
72570;BME280;60594;50.204;8.844;2023-05-07T04:08:28;99927.72;;;14.46;86.68
72570;BME280;60594;50.204;8.844;2023-05-07T04:10:58;99933.28;;;14.52;86.31
72570;BME280;60594;50.204;8.844;2023-05-07T04:13:29;99922.47;;;14.62;85.97
72570;BME280;60594;50.204;8.844;2023-05-07T04:15:56;99925.84;;;14.64;86.25
72570;BME280;60594;50.204;8.844;2023-05-07T04:18:22;99934.75;;;14.47;87.39
72570;BME280;60594;50.204;8.844;2023-05-07T04:20:50;99933.38;;;14.43;88.39
72570;BME280;60594;50.204;8.844;2023-05-07T04:23:16;99939.19;;;14.38;89.15
72570;BME280;60594;50.204;8.844;2023-05-07T04:25:43;99936.50;;;14.38;89.87
72570;BME280;60594;50.204;8.844;2023-05-07T04:28:23;99940.19;;;14.37;89.42
72570;BME280;60594;50.204;8.844;2023-05-07T04:30:51;99939.34;;;14.37;89.15
72570;BME280;60594;50.204;8.844;2023-05-07T04:33:17;99953.53;;;14.29;89.59
72570;BME280;60594;50.204;8.844;2023-05-07T04:35:45;99943.56;;;14.39;88.63
72570;BME280;60594;50.204;8.844;2023-05-07T04:38:12;99948.88;;;14.49;87.91
72570;BME280;60594;50.204;8.844;2023-05-07T04:40:38;99955.19;;;14.48;86.76
72570;BME280;60594;50.204;8.844;2023-05-07T04:43:07;99951.28;;;14.42;87.01
72570;BME280;60594;50.204;8.844;2023-05-07T04:45:40;99959.50;;;14.58;86.75
72570;BME280;60594;50.204;8.844;2023-05-07T04:48:11;99956.97;;;14.57;85.02
72570;BME280;60594;50.204;8.844;2023-05-07T04:50:40;99961.03;;;14.61;85.20
72570;BME280;60594;50.204;8.844;2023-05-07T04:53:07;99967.91;;;14.63;85.58
72570;BME280;60594;50.204;8.844;2023-05-07T04:55:34;99975.44;;;14.77;82.58
72570;BME280;60594;50.204;8.844;2023-05-07T04:58:01;99976.19;;;14.87;82.75
72570;BME280;60594;50.204;8.844;2023-05-07T05:00:30;99979.25;;;14.92;83.49
72570;BME280;60594;50.204;8.844;2023-05-07T05:02:57;99976.94;;;14.80;84.21
72570;BME280;60594;50.204;8.844;2023-05-07T05:05:24;99987.00;;;14.43;86.58
72570;BME280;60594;50.204;8.844;2023-05-07T05:07:53;99991.22;;;14.45;88.21
72570;BME280;60594;50.204;8.844;2023-05-07T05:10:21;99989.38;;;14.63;88.24
72570;BME280;60594;50.204;8.844;2023-05-07T05:12:50;99988.78;;;14.69;88.67
72570;BME280;60594;50.204;8.844;2023-05-07T05:15:16;99985.69;;;14.82;88.39
72570;BME280;60594;50.204;8.844;2023-05-07T05:17:43;99989.28;;;14.90;87.59
72570;BME280;60594;50.204;8.844;2023-05-07T05:20:10;99993.88;;;14.98;87.37
72570;BME280;60594;50.204;8.844;2023-05-07T05:22:38;99989.38;;;14.98;87.51
72570;BME280;60594;50.204;8.844;2023-05-07T05:25:07;99988.88;;;15.03;87.68
72570;BME280;60594;50.204;8.844;2023-05-07T05:27:40;99990.88;;;15.01;86.70
72570;BME280;60594;50.204;8.844;2023-05-07T05:30:08;99986.28;;;14.93;87.01
72570;BME280;60594;50.204;8.844;2023-05-07T05:32:36;99997.56;;;14.97;86.84
72570;BME280;60594;50.204;8.844;2023-05-07T05:35:05;99997.16;;;14.92;87.05
72570;BME280;60594;50.204;8.844;2023-05-07T05:37:32;100000.91;;;14.99;86.22
72570;BME280;60594;50.204;8.844;2023-05-07T05:40:03;99999.25;;;14.98;87.11
72570;BME280;60594;50.204;8.844;2023-05-07T05:42:31;100003.38;;;14.92;87.29
72570;BME280;60594;50.204;8.844;2023-05-07T05:44:58;99998.88;;;14.93;87.77
72570;BME280;60594;50.204;8.844;2023-05-07T05:47:29;100004.81;;;15.04;86.56
72570;BME280;60594;50.204;8.844;2023-05-07T05:49:58;100002.44;;;15.19;86.00
72570;BME280;60594;50.204;8.844;2023-05-07T05:52:26;100009.38;;;15.29;84.97
72570;BME280;60594;50.204;8.844;2023-05-07T05:54:54;100005.53;;;15.32;86.84
72570;BME280;60594;50.204;8.844;2023-05-07T05:57:21;100009.06;;;15.32;82.70
72570;BME280;60594;50.204;8.844;2023-05-07T05:59:48;100004.78;;;15.39;83.54
72570;BME280;60594;50.204;8.844;2023-05-07T06:02:14;100007.63;;;15.38;82.73
72570;BME280;60594;50.204;8.844;2023-05-07T06:04:41;100011.72;;;15.50;81.80
72570;BME280;60594;50.204;8.844;2023-05-07T06:07:10;100006.34;;;15.50;81.10
72570;BME280;60594;50.204;8.844;2023-05-07T06:09:36;100006.91;;;15.53;81.23
72570;BME280;60594;50.204;8.844;2023-05-07T06:12:03;100010.34;;;15.46;82.75
72570;BME280;60594;50.204;8.844;2023-05-07T06:14:31;100006.03;;;15.53;83.01
72570;BME280;60594;50.204;8.844;2023-05-07T06:16:58;100012.28;;;15.53;82.91
72570;BME280;60594;50.204;8.844;2023-05-07T06:19:24;100004.69;;;15.49;81.65
72570;BME280;60594;50.204;8.844;2023-05-07T06:21:54;100018.16;;;15.57;82.72
72570;BME280;60594;50.204;8.844;2023-05-07T06:24:24;100016.41;;;15.73;83.71
72570;BME280;60594;50.204;8.844;2023-05-07T06:26:50;100025.19;;;15.83;83.19
72570;BME280;60594;50.204;8.844;2023-05-07T06:29:17;100023.28;;;15.76;82.88
72570;BME280;60594;50.204;8.844;2023-05-07T06:31:44;100015.50;;;15.65;84.57
72570;BME280;60594;50.204;8.844;2023-05-07T06:34:11;100021.97;;;15.80;83.08
72570;BME280;60594;50.204;8.844;2023-05-07T06:36:41;100021.22;;;15.95;83.02
72570;BME280;60594;50.204;8.844;2023-05-07T06:39:36;100028.28;;;16.04;80.63
72570;BME280;60594;50.204;8.844;2023-05-07T06:42:03;100029.63;;;16.00;80.64
72570;BME280;60594;50.204;8.844;2023-05-07T06:44:32;100015.53;;;16.06;79.11
72570;BME280;60594;50.204;8.844;2023-05-07T06:47:06;100024.13;;;16.10;79.74
72570;BME280;60594;50.204;8.844;2023-05-07T06:49:32;100029.88;;;16.15;80.98
72570;BME280;60594;50.204;8.844;2023-05-07T06:51:59;100034.09;;;16.25;78.47
72570;BME280;60594;50.204;8.844;2023-05-07T06:54:26;100031.22;;;16.19;79.48
72570;BME280;60594;50.204;8.844;2023-05-07T06:56:53;100034.25;;;16.24;79.20
72570;BME280;60594;50.204;8.844;2023-05-07T06:59:20;100017.75;;;16.11;80.18
72570;BME280;60594;50.204;8.844;2023-05-07T07:01:48;100021.66;;;16.24;80.10
72570;BME280;60594;50.204;8.844;2023-05-07T07:04:14;100033.97;;;16.35;78.18
72570;BME280;60594;50.204;8.844;2023-05-07T07:06:43;100027.25;;;16.39;78.99
72570;BME280;60594;50.204;8.844;2023-05-07T07:09:12;100031.28;;;16.35;78.50
72570;BME280;60594;50.204;8.844;2023-05-07T07:11:40;100025.72;;;16.36;78.04
72570;BME280;60594;50.204;8.844;2023-05-07T07:14:07;100033.03;;;16.52;78.08
72570;BME280;60594;50.204;8.844;2023-05-07T07:16:40;100036.38;;;16.54;75.95
72570;BME280;60594;50.204;8.844;2023-05-07T07:19:07;100036.44;;;16.62;76.73
72570;BME280;60594;50.204;8.844;2023-05-07T07:21:34;100031.53;;;16.57;75.25
72570;BME280;60594;50.204;8.844;2023-05-07T07:24:00;100037.63;;;16.67;72.96
72570;BME280;60594;50.204;8.844;2023-05-07T07:26:27;100031.88;;;16.54;73.01
72570;BME280;60594;50.204;8.844;2023-05-07T07:28:54;100026.31;;;16.64;73.61
72570;BME280;60594;50.204;8.844;2023-05-07T07:31:22;100038.97;;;16.88;73.03
72570;BME280;60594;50.204;8.844;2023-05-07T07:33:50;100025.84;;;16.92;71.98
72570;BME280;60594;50.204;8.844;2023-05-07T07:36:17;100042.03;;;17.09;73.01
72570;BME280;60594;50.204;8.844;2023-05-07T07:38:44;100045.53;;;17.17;73.85
72570;BME280;60594;50.204;8.844;2023-05-07T07:41:11;100043.38;;;17.29;71.28
72570;BME280;60594;50.204;8.844;2023-05-07T07:43:37;100041.88;;;17.42;72.46
72570;BME280;60594;50.204;8.844;2023-05-07T07:46:04;100034.28;;;17.38;70.19
72570;BME280;60594;50.204;8.844;2023-05-07T07:48:31;100040.16;;;17.57;71.44
72570;BME280;60594;50.204;8.844;2023-05-07T07:50:59;100042.03;;;17.57;70.61
72570;BME280;60594;50.204;8.844;2023-05-07T07:53:25;100044.06;;;17.47;69.17
72570;BME280;60594;50.204;8.844;2023-05-07T07:55:52;100051.63;;;17.59;71.99
72570;BME280;60594;50.204;8.844;2023-05-07T07:58:22;100029.88;;;17.69;71.10
72570;BME280;60594;50.204;8.844;2023-05-07T08:00:48;100045.16;;;17.84;69.36
72570;BME280;60594;50.204;8.844;2023-05-07T08:03:15;100054.22;;;17.99;70.28
72570;BME280;60594;50.204;8.844;2023-05-07T08:05:46;100047.28;;;18.05;68.19
72570;BME280;60594;50.204;8.844;2023-05-07T08:08:12;100057.53;;;18.09;68.13
72570;BME280;60594;50.204;8.844;2023-05-07T08:10:41;100050.53;;;17.92;69.25
72570;BME280;60594;50.204;8.844;2023-05-07T08:13:14;100063.31;;;18.06;69.77
72570;BME280;60594;50.204;8.844;2023-05-07T08:15:42;100056.19;;;18.13;70.01
72570;BME280;60594;50.204;8.844;2023-05-07T08:18:10;100060.50;;;18.30;69.07
72570;BME280;60594;50.204;8.844;2023-05-07T08:20:36;100053.91;;;18.33;69.57
72570;BME280;60594;50.204;8.844;2023-05-07T08:23:06;100051.53;;;18.46;67.52
72570;BME280;60594;50.204;8.844;2023-05-07T08:25:34;100052.84;;;18.50;68.09
72570;BME280;60594;50.204;8.844;2023-05-07T08:28:01;100043.50;;;18.22;67.94
72570;BME280;60594;50.204;8.844;2023-05-07T08:30:29;100050.88;;;18.36;68.25
72570;BME280;60594;50.204;8.844;2023-05-07T08:32:56;100048.31;;;18.42;69.17
72570;BME280;60594;50.204;8.844;2023-05-07T08:35:23;100041.16;;;18.19;69.37
72570;BME280;60594;50.204;8.844;2023-05-07T08:37:49;100049.41;;;18.25;69.28
72570;BME280;60594;50.204;8.844;2023-05-07T08:40:18;100052.53;;;18.45;66.83
72570;BME280;60594;50.204;8.844;2023-05-07T08:42:48;100057.94;;;18.45;67.32
72570;BME280;60594;50.204;8.844;2023-05-07T08:45:17;100059.06;;;18.58;67.69
72570;BME280;60594;50.204;8.844;2023-05-07T08:47:52;100044.63;;;18.43;66.39
72570;BME280;60594;50.204;8.844;2023-05-07T08:50:22;100053.06;;;18.40;65.93
72570;BME280;60594;50.204;8.844;2023-05-07T08:52:49;100042.63;;;18.37;67.65
72570;BME280;60594;50.204;8.844;2023-05-07T08:55:17;100045.50;;;18.36;65.24
72570;BME280;60594;50.204;8.844;2023-05-07T08:57:44;100046.38;;;18.59;67.90
72570;BME280;60594;50.204;8.844;2023-05-07T09:00:13;100043.25;;;18.70;68.82
72570;BME280;60594;50.204;8.844;2023-05-07T09:02:40;100044.91;;;18.79;66.76
72570;BME280;60594;50.204;8.844;2023-05-07T09:05:08;100043.47;;;18.91;66.89
72570;BME280;60594;50.204;8.844;2023-05-07T09:07:35;100047.31;;;18.96;65.98
72570;BME280;60594;50.204;8.844;2023-05-07T09:10:04;100034.88;;;19.10;67.41
72570;BME280;60594;50.204;8.844;2023-05-07T09:12:32;100027.56;;;18.96;64.67
72570;BME280;60594;50.204;8.844;2023-05-07T09:15:02;100032.13;;;18.95;65.37
72570;BME280;60594;50.204;8.844;2023-05-07T09:17:31;100035.19;;;19.15;67.45
72570;BME280;60594;50.204;8.844;2023-05-07T09:20:04;100035.44;;;19.28;65.64
72570;BME280;60594;50.204;8.844;2023-05-07T09:22:33;100040.47;;;19.08;64.89
72570;BME280;60594;50.204;8.844;2023-05-07T09:25:08;100040.09;;;19.11;66.30
72570;BME280;60594;50.204;8.844;2023-05-07T09:27:45;100044.13;;;19.38;64.82
72570;BME280;60594;50.204;8.844;2023-05-07T09:30:12;100038.81;;;19.30;64.43
72570;BME280;60594;50.204;8.844;2023-05-07T09:32:39;100030.97;;;19.35;65.09
72570;BME280;60594;50.204;8.844;2023-05-07T09:35:14;100041.38;;;19.60;65.05
72570;BME280;60594;50.204;8.844;2023-05-07T09:37:42;100027.13;;;19.66;65.20
72570;BME280;60594;50.204;8.844;2023-05-07T09:40:20;100036.28;;;19.94;65.09
72570;BME280;60594;50.204;8.844;2023-05-07T09:42:47;100043.03;;;20.28;63.24
72570;BME280;60594;50.204;8.844;2023-05-07T09:45:21;100038.88;;;20.46;64.70
72570;BME280;60594;50.204;8.844;2023-05-07T09:47:49;100039.53;;;20.69;60.84
72570;BME280;60594;50.204;8.844;2023-05-07T09:50:19;100037.75;;;20.76;60.60
72570;BME280;60594;50.204;8.844;2023-05-07T09:52:46;100032.59;;;20.60;61.57
72570;BME280;60594;50.204;8.844;2023-05-07T09:55:13;100037.81;;;20.47;62.32
72570;BME280;60594;50.204;8.844;2023-05-07T09:57:42;100035.41;;;20.73;61.43
72570;BME280;60594;50.204;8.844;2023-05-07T10:00:10;100035.03;;;20.55;59.72
72570;BME280;60594;50.204;8.844;2023-05-07T10:02:51;100033.75;;;20.72;59.74
72570;BME280;60594;50.204;8.844;2023-05-07T10:05:23;100040.97;;;21.01;59.57
72570;BME280;60594;50.204;8.844;2023-05-07T10:07:52;100032.09;;;21.34;59.62
72570;BME280;60594;50.204;8.844;2023-05-07T10:10:20;100027.66;;;21.75;58.38
72570;BME280;60594;50.204;8.844;2023-05-07T10:12:47;100032.63;;;21.99;61.50
72570;BME280;60594;50.204;8.844;2023-05-07T10:15:26;100025.63;;;22.24;56.28
72570;BME280;60594;50.204;8.844;2023-05-07T10:17:56;100021.91;;;22.25;54.35
72570;BME280;60594;50.204;8.844;2023-05-07T10:20:25;100032.00;;;22.04;56.35
72570;BME280;60594;50.204;8.844;2023-05-07T10:22:55;100022.50;;;21.80;57.57
72570;BME280;60594;50.204;8.844;2023-05-07T10:25:30;100031.94;;;21.63;57.33
72570;BME280;60594;50.204;8.844;2023-05-07T10:28:04;100027.22;;;21.72;57.57
72570;BME280;60594;50.204;8.844;2023-05-07T10:30:55;100035.22;;;22.20;56.27
72570;BME280;60594;50.204;8.844;2023-05-07T10:33:29;100032.41;;;22.41;54.23
72570;BME280;60594;50.204;8.844;2023-05-07T10:35:59;100028.72;;;22.49;55.53
72570;BME280;60594;50.204;8.844;2023-05-07T10:38:27;100031.25;;;22.57;56.90
72570;BME280;60594;50.204;8.844;2023-05-07T10:40:54;100027.50;;;22.64;54.80
72570;BME280;60594;50.204;8.844;2023-05-07T10:43:21;100030.28;;;22.77;54.47
72570;BME280;60594;50.204;8.844;2023-05-07T10:51:27;100033.41;;;22.81;51.86
72570;BME280;60594;50.204;8.844;2023-05-07T10:56:45;100019.78;;;22.61;52.42
72570;BME280;60594;50.204;8.844;2023-05-07T11:01:56;100016.88;;;22.76;53.34
72570;BME280;60594;50.204;8.844;2023-05-07T11:04:34;100020.19;;;22.58;57.37
72570;BME280;60594;50.204;8.844;2023-05-07T11:07:27;100008.69;;;22.63;55.44
72570;BME280;60594;50.204;8.844;2023-05-07T11:09:59;100012.78;;;22.39;54.77
72570;BME280;60594;50.204;8.844;2023-05-07T11:12:46;100009.06;;;22.53;52.92
72570;BME280;60594;50.204;8.844;2023-05-07T11:15:35;100009.56;;;22.76;54.25
72570;BME280;60594;50.204;8.844;2023-05-07T11:18:05;99997.25;;;22.87;58.32
72570;BME280;60594;50.204;8.844;2023-05-07T11:20:58;99999.16;;;23.13;52.65
72570;BME280;60594;50.204;8.844;2023-05-07T11:26:26;99998.97;;;23.21;56.06
72570;BME280;60594;50.204;8.844;2023-05-07T11:28:53;99996.72;;;23.37;51.72
72570;BME280;60594;50.204;8.844;2023-05-07T11:31:23;100008.41;;;23.25;50.84
72570;BME280;60594;50.204;8.844;2023-05-07T11:33:52;100007.56;;;23.24;50.05
72570;BME280;60594;50.204;8.844;2023-05-07T11:36:22;100005.50;;;23.52;51.46
72570;BME280;60594;50.204;8.844;2023-05-07T11:38:51;100004.63;;;23.71;51.21
72570;BME280;60594;50.204;8.844;2023-05-07T11:41:17;99996.25;;;23.73;48.84
72570;BME280;60594;50.204;8.844;2023-05-07T11:43:59;99989.34;;;23.64;52.68
72570;BME280;60594;50.204;8.844;2023-05-07T11:46:27;99998.56;;;23.63;51.76
72570;BME280;60594;50.204;8.844;2023-05-07T11:48:55;99970.09;;;23.59;52.13
72570;BME280;60594;50.204;8.844;2023-05-07T11:51:24;99984.72;;;23.71;52.51
72570;BME280;60594;50.204;8.844;2023-05-07T11:54:08;99988.69;;;23.75;48.35
72570;BME280;60594;50.204;8.844;2023-05-07T11:56:35;99983.06;;;23.63;48.91
72570;BME280;60594;50.204;8.844;2023-05-07T11:59:05;99986.22;;;23.60;51.60
72570;BME280;60594;50.204;8.844;2023-05-07T12:01:35;99984.09;;;23.75;50.82
72570;BME280;60594;50.204;8.844;2023-05-07T12:04:03;99986.16;;;23.73;50.23
72570;BME280;60594;50.204;8.844;2023-05-07T12:06:29;99983.88;;;23.77;49.45
72570;BME280;60594;50.204;8.844;2023-05-07T12:08:57;99974.03;;;23.82;51.43
72570;BME280;60594;50.204;8.844;2023-05-07T12:11:24;99976.50;;;23.97;50.91
72570;BME280;60594;50.204;8.844;2023-05-07T12:13:53;99979.03;;;23.98;48.27
72570;BME280;60594;50.204;8.844;2023-05-07T12:16:20;99971.09;;;23.71;49.18
72570;BME280;60594;50.204;8.844;2023-05-07T12:18:48;99972.97;;;23.70;51.08
72570;BME280;60594;50.204;8.844;2023-05-07T12:21:14;99972.56;;;23.93;48.36
72570;BME280;60594;50.204;8.844;2023-05-07T12:23:43;99978.19;;;23.98;49.93
72570;BME280;60594;50.204;8.844;2023-05-07T12:26:10;99973.16;;;24.01;52.22
72570;BME280;60594;50.204;8.844;2023-05-07T12:28:38;99966.25;;;23.92;49.72
72570;BME280;60594;50.204;8.844;2023-05-07T12:31:04;99970.25;;;23.96;49.38
72570;BME280;60594;50.204;8.844;2023-05-07T12:33:31;99971.34;;;23.56;51.75
72570;BME280;60594;50.204;8.844;2023-05-07T12:36:03;99964.59;;;23.72;52.63
72570;BME280;60594;50.204;8.844;2023-05-07T12:38:35;99970.91;;;23.66;51.03
72570;BME280;60594;50.204;8.844;2023-05-07T12:41:01;99964.59;;;23.85;52.67
72570;BME280;60594;50.204;8.844;2023-05-07T12:43:29;99968.19;;;23.72;50.42
72570;BME280;60594;50.204;8.844;2023-05-07T12:45:57;99966.94;;;23.62;51.63
72570;BME280;60594;50.204;8.844;2023-05-07T12:48:26;99955.91;;;23.37;49.37
72570;BME280;60594;50.204;8.844;2023-05-07T12:51:01;99965.72;;;23.45;50.41
72570;BME280;60594;50.204;8.844;2023-05-07T12:53:29;99958.59;;;23.31;49.86
72570;BME280;60594;50.204;8.844;2023-05-07T12:55:58;99958.19;;;23.34;53.81
72570;BME280;60594;50.204;8.844;2023-05-07T12:58:27;99958.00;;;23.29;51.75
72570;BME280;60594;50.204;8.844;2023-05-07T13:00:55;99958.19;;;23.27;52.64
72570;BME280;60594;50.204;8.844;2023-05-07T13:03:27;99959.19;;;23.20;52.71
72570;BME280;60594;50.204;8.844;2023-05-07T13:05:59;99953.13;;;23.57;54.53
72570;BME280;60594;50.204;8.844;2023-05-07T13:08:33;99954.72;;;23.97;51.90
72570;BME280;60594;50.204;8.844;2023-05-07T13:11:02;99941.84;;;24.23;47.90
72570;BME280;60594;50.204;8.844;2023-05-07T13:13:34;99944.09;;;24.33;47.63
72570;BME280;60594;50.204;8.844;2023-05-07T13:16:02;99942.84;;;24.35;47.40
72570;BME280;60594;50.204;8.844;2023-05-07T13:18:30;99938.19;;;24.42;47.60